South Boston, VA

4:50 AM EDT on August 17, 2017 (GMT -0400)
North Main Street | | Change Station

Elev 489 ft 36.73 °N, 78.91 °W | Updated 8 minutes ago

Clear
Clear
72.8 °F
Feels Like 72.8 °F
N
0.0
Wind Variable Wind from SE
Gusts 0.0 mph

Today
High -- | Low -- °F
--% Chance of Precip.
Yesterday
High -- | Low -- °F
Precip. -- in
Pressure 29.99 in
Visibility 9.0 miles
Clouds Mostly Cloudy 9000 ft
Overcast 12000 ft
Dew Point 72 °F
Humidity 96%
Rainfall 0.00 in
Snow Depth Not available.
6:34 AM 8:03 PM
Waning Crescent, 25% visible
METAR KDAN 170753Z AUTO 00000KT 9SM BKN090 OVC120 23/23 A3003 RMK AO2 SLP156 T02280228
Pressure 29.99 in
Visibility 9.0 miles
Clouds Mostly Cloudy 9000 ft
Overcast 12000 ft
Dew Point 72 °F
Humidity 96%
Rainfall 0.00 in
Snow Depth Not available.
6:34 AM 8:03 PM
Waning Crescent, 25% visible
METAR KDAN 170753Z AUTO 00000KT 9SM BKN090 OVC120 23/23 A3003 RMK AO2 SLP156 T02280228

Get Severe Weather Alerts

Thanks for signing up!

Be on the lookout for a verification email in your inbox.

You'll start receiving the daily forecast at 6 AM.

×

10-Day Weather Forecast

Almanac

Astronomy

Aug. 17, 2017 Rise Set
Actual Time
Civil Twilight
Nautical Twilight
Astronomical Twilight
Moon
Length of Visible Light
Length of Day
Tomorrow will be .
, % of the Moon is Illuminated

Today's Extremes

State Highs State Lows

Community

WunderPhotos

Category 6

Welcome to Category 6. This is the collective home for Weather Underground's featured writeups by Dr. Jeff Masters (right), Bob Henson (left), Chris Burt, and other regular contributors.

Nearby

Air Quality

  Air Quality AQ Index Pollutant
Not available.

Snow Depth

Station Depth Elevation

Earthquake Activity

City Distance Mag. Time & Date
Minimum magnitude displayed is 2.5.

Coastal Water Temperatures

Place Temperature

Stations

Nearby Weather Stations

Station Location Temp. Windchill Dew Point Humidity Wind Precip. Elev Updated Type
                   

Watches & Warnings

There are currently no watches in effect.